sensor_id;sensor_type;location;lat;lon;timestamp;temperature;humidity
10143;DHT22;5112;54.088;13.446;2023-02-28T00:02:49;-2.00;99.90
10143;DHT22;5112;54.088;13.446;2023-02-28T00:12:54;-2.00;99.90
10143;DHT22;5112;54.088;13.446;2023-02-28T00:22:57;-2.20;99.90
10143;DHT22;5112;54.088;13.446;2023-02-28T00:33:00;-2.10;99.90
10143;DHT22;5112;54.088;13.446;2023-02-28T00:43:01;-2.20;99.90
10143;DHT22;5112;54.088;13.446;2023-02-28T00:53:05;-2.20;99.90
10143;DHT22;5112;54.088;13.446;2023-02-28T01:03:07;-2.30;99.90
10143;DHT22;5112;54.088;13.446;2023-02-28T01:13:10;-2.40;99.90
10143;DHT22;5112;54.088;13.446;2023-02-28T01:23:12;-2.50;99.90
10143;DHT22;5112;54.088;13.446;2023-02-28T01:33:15;-2.40;99.90
10143;DHT22;5112;54.088;13.446;2023-02-28T01:43:20;-2.50;99.90
10143;DHT22;5112;54.088;13.446;2023-02-28T01:53:29;-2.50;99.90
10143;DHT22;5112;54.088;13.446;2023-02-28T02:03:34;-2.60;99.90
10143;DHT22;5112;54.088;13.446;2023-02-28T02:13:57;-2.50;99.90
10143;DHT22;5112;54.088;13.446;2023-02-28T02:34:40;-2.90;99.90
10143;DHT22;5112;54.088;13.446;2023-02-28T02:44:46;-2.90;99.90
10143;DHT22;5112;54.088;13.446;2023-02-28T02:54:52;-2.90;99.90
10143;DHT22;5112;54.088;13.446;2023-02-28T03:04:59;-3.00;99.90
10143;DHT22;5112;54.088;13.446;2023-02-28T03:15:09;-3.00;99.90
10143;DHT22;5112;54.088;13.446;2023-02-28T03:25:24;-3.00;99.90
10143;DHT22;5112;54.088;13.446;2023-02-28T03:35:34;-3.00;99.90
10143;DHT22;5112;54.088;13.446;2023-02-28T03:45:38;-3.10;99.90
10143;DHT22;5112;54.088;13.446;2023-02-28T03:55:43;-3.20;99.90
10143;DHT22;5112;54.088;13.446;2023-02-28T04:05:50;-3.30;99.90
10143;DHT22;5112;54.088;13.446;2023-02-28T04:15:53;-3.30;99.90
10143;DHT22;5112;54.088;13.446;2023-02-28T04:25:55;-3.10;99.90
10143;DHT22;5112;54.088;13.446;2023-02-28T04:36:02;-3.20;99.90
10143;DHT22;5112;54.088;13.446;2023-02-28T04:46:05;-3.20;99.90
10143;DHT22;5112;54.088;13.446;2023-02-28T04:56:11;-3.20;99.90
10143;DHT22;5112;54.088;13.446;2023-02-28T05:06:14;-3.20;99.90
10143;DHT22;5112;54.088;13.446;2023-02-28T05:16:18;-3.40;99.90
10143;DHT22;5112;54.088;13.446;2023-02-28T05:26:20;-3.40;99.90
10143;DHT22;5112;54.088;13.446;2023-02-28T05:36:23;-3.40;99.90
10143;DHT22;5112;54.088;13.446;2023-02-28T05:46:25;-3.40;99.90
10143;DHT22;5112;54.088;13.446;2023-02-28T05:56:28;-3.50;99.90
10143;DHT22;5112;54.088;13.446;2023-02-28T06:06:30;-3.60;99.90
10143;DHT22;5112;54.088;13.446;2023-02-28T06:16:34;-3.50;99.90
10143;DHT22;5112;54.088;13.446;2023-02-28T06:26:36;-3.50;99.90
10143;DHT22;5112;54.088;13.446;2023-02-28T06:36:39;-3.50;99.90
10143;DHT22;5112;54.088;13.446;2023-02-28T06:46:41;-3.30;99.90
10143;DHT22;5112;54.088;13.446;2023-02-28T06:56:45;-3.10;99.90
10143;DHT22;5112;54.088;13.446;2023-02-28T07:06:47;-2.80;99.90
10143;DHT22;5112;54.088;13.446;2023-02-28T07:16:50;-0.80;99.90
10143;DHT22;5112;54.088;13.446;2023-02-28T07:26:52;0.10;99.90
10143;DHT22;5112;54.088;13.446;2023-02-28T07:36:55;0.80;99.90
10143;DHT22;5112;54.088;13.446;2023-02-28T07:46:57;1.30;99.90
10143;DHT22;5112;54.088;13.446;2023-02-28T07:57:00;2.00;99.90
10143;DHT22;5112;54.088;13.446;2023-02-28T08:07:01;2.40;99.90
10143;DHT22;5112;54.088;13.446;2023-02-28T08:17:05;3.10;99.90
10143;DHT22;5112;54.088;13.446;2023-02-28T08:27:06;3.50;99.90
10143;DHT22;5112;54.088;13.446;2023-02-28T08:37:10;3.90;99.90
10143;DHT22;5112;54.088;13.446;2023-02-28T08:47:12;4.10;99.90
10143;DHT22;5112;54.088;13.446;2023-02-28T08:57:15;4.30;99.90
10143;DHT22;5112;54.088;13.446;2023-02-28T09:07:17;4.30;99.90
10143;DHT22;5112;54.088;13.446;2023-02-28T09:17:20;4.90;99.90
10143;DHT22;5112;54.088;13.446;2023-02-28T09:27:22;5.10;99.90
10143;DHT22;5112;54.088;13.446;2023-02-28T09:37:25;5.50;99.90
10143;DHT22;5112;54.088;13.446;2023-02-28T09:47:32;5.20;99.90
10143;DHT22;5112;54.088;13.446;2023-02-28T09:57:38;5.90;99.90
10143;DHT22;5112;54.088;13.446;2023-02-28T10:07:50;6.10;99.90
10143;DHT22;5112;54.088;13.446;2023-02-28T10:18:00;6.00;99.90
10143;DHT22;5112;54.088;13.446;2023-02-28T10:28:10;6.00;99.90
10143;DHT22;5112;54.088;13.446;2023-02-28T10:38:17;6.60;99.90
10143;DHT22;5112;54.088;13.446;2023-02-28T10:48:29;6.60;99.90
10143;DHT22;5112;54.088;13.446;2023-02-28T10:58:48;6.70;99.90
10143;DHT22;5112;54.088;13.446;2023-02-28T11:08:54;7.20;99.90
10143;DHT22;5112;54.088;13.446;2023-02-28T11:18:57;7.60;99.90
10143;DHT22;5112;54.088;13.446;2023-02-28T11:29:08;7.20;99.90
10143;DHT22;5112;54.088;13.446;2023-02-28T11:39:12;8.00;99.90
10143;DHT22;5112;54.088;13.446;2023-02-28T11:49:25;7.70;99.90
10143;DHT22;5112;54.088;13.446;2023-02-28T11:59:51;7.10;99.90
10143;DHT22;5112;54.088;13.446;2023-02-28T12:10:02;7.40;99.90
10143;DHT22;5112;54.088;13.446;2023-02-28T12:20:16;7.80;99.90
10143;DHT22;5112;54.088;13.446;2023-02-28T12:30:22;8.20;99.90
10143;DHT22;5112;54.088;13.446;2023-02-28T12:40:31;8.30;99.90
10143;DHT22;5112;54.088;13.446;2023-02-28T12:50:34;8.60;99.90
10143;DHT22;5112;54.088;13.446;2023-02-28T13:00:49;8.60;99.70
10143;DHT22;5112;54.088;13.446;2023-02-28T13:10:55;8.90;99.90
10143;DHT22;5112;54.088;13.446;2023-02-28T13:20:58;9.00;99.90
10143;DHT22;5112;54.088;13.446;2023-02-28T13:31:05;9.20;99.90
10143;DHT22;5112;54.088;13.446;2023-02-28T13:41:42;9.00;99.90
10143;DHT22;5112;54.088;13.446;2023-02-28T13:51:45;9.30;99.80
10143;DHT22;5112;54.088;13.446;2023-02-28T14:01:57;9.60;99.90
10143;DHT22;5112;54.088;13.446;2023-02-28T14:22:51;8.10;99.90
10143;DHT22;5112;54.088;13.446;2023-02-28T14:33:05;7.40;99.90
10143;DHT22;5112;54.088;13.446;2023-02-28T14:43:21;7.20;99.90
10143;DHT22;5112;54.088;13.446;2023-02-28T14:53:26;7.00;99.90
10143;DHT22;5112;54.088;13.446;2023-02-28T15:03:32;7.20;99.90
10143;DHT22;5112;54.088;13.446;2023-02-28T15:13:38;6.80;99.90
10143;DHT22;5112;54.088;13.446;2023-02-28T15:23:44;6.90;99.90
10143;DHT22;5112;54.088;13.446;2023-02-28T15:33:53;6.80;99.90
10143;DHT22;5112;54.088;13.446;2023-02-28T15:44:17;6.60;99.90
10143;DHT22;5112;54.088;13.446;2023-02-28T15:54:21;6.50;99.90
10143;DHT22;5112;54.088;13.446;2023-02-28T16:04:26;6.30;99.90
10143;DHT22;5112;54.088;13.446;2023-02-28T16:14:32;6.00;99.90
10143;DHT22;5112;54.088;13.446;2023-02-28T16:24:37;5.90;99.90
10143;DHT22;5112;54.088;13.446;2023-02-28T16:34:39;5.40;99.90
10143;DHT22;5112;54.088;13.446;2023-02-28T16:44:42;5.10;99.90
10143;DHT22;5112;54.088;13.446;2023-02-28T16:54:44;4.60;99.90
10143;DHT22;5112;54.088;13.446;2023-02-28T17:04:47;4.00;99.90
10143;DHT22;5112;54.088;13.446;2023-02-28T17:14:49;3.60;99.90
10143;DHT22;5112;54.088;13.446;2023-02-28T17:24:52;3.20;99.90
10143;DHT22;5112;54.088;13.446;2023-02-28T17:34:55;2.90;99.90
10143;DHT22;5112;54.088;13.446;2023-02-28T17:44:58;2.70;99.90
10143;DHT22;5112;54.088;13.446;2023-02-28T17:55:00;2.50;99.90
10143;DHT22;5112;54.088;13.446;2023-02-28T18:05:04;2.30;99.90
10143;DHT22;5112;54.088;13.446;2023-02-28T18:15:06;1.90;99.90
10143;DHT22;5112;54.088;13.446;2023-02-28T18:25:11;1.70;99.90
10143;DHT22;5112;54.088;13.446;2023-02-28T18:35:14;1.60;99.90
10143;DHT22;5112;54.088;13.446;2023-02-28T18:45:17;1.50;99.90
10143;DHT22;5112;54.088;13.446;2023-02-28T18:55:18;1.20;99.90
10143;DHT22;5112;54.088;13.446;2023-02-28T19:05:22;1.20;99.90
10143;DHT22;5112;54.088;13.446;2023-02-28T19:15:23;1.00;99.90
10143;DHT22;5112;54.088;13.446;2023-02-28T19:25:26;1.10;99.90
10143;DHT22;5112;54.088;13.446;2023-02-28T19:35:28;1.10;99.90
10143;DHT22;5112;54.088;13.446;2023-02-28T19:45:32;0.90;99.90
10143;DHT22;5112;54.088;13.446;2023-02-28T19:55:34;0.60;99.90
10143;DHT22;5112;54.088;13.446;2023-02-28T20:05:37;0.50;99.90
10143;DHT22;5112;54.088;13.446;2023-02-28T20:15:39;0.50;99.90
10143;DHT22;5112;54.088;13.446;2023-02-28T20:25:42;0.50;99.90
10143;DHT22;5112;54.088;13.446;2023-02-28T20:35:44;0.40;99.90
10143;DHT22;5112;54.088;13.446;2023-02-28T20:45:51;0.40;99.90
10143;DHT22;5112;54.088;13.446;2023-02-28T20:55:53;0.20;99.90
10143;DHT22;5112;54.088;13.446;2023-02-28T21:06:00;0.10;99.90
10143;DHT22;5112;54.088;13.446;2023-02-28T21:16:03;0.10;99.90
10143;DHT22;5112;54.088;13.446;2023-02-28T21:26:08;0.10;99.90
10143;DHT22;5112;54.088;13.446;2023-02-28T21:36:12;-0.20;99.90
10143;DHT22;5112;54.088;13.446;2023-02-28T21:46:18;-0.30;99.90
10143;DHT22;5112;54.088;13.446;2023-02-28T21:56:22;-0.30;99.90
10143;DHT22;5112;54.088;13.446;2023-02-28T22:06:27;-0.30;99.90
10143;DHT22;5112;54.088;13.446;2023-02-28T22:16:30;-0.20;99.90
10143;DHT22;5112;54.088;13.446;2023-02-28T22:26:35;-0.20;99.90
10143;DHT22;5112;54.088;13.446;2023-02-28T22:36:39;-0.20;99.90
10143;DHT22;5112;54.088;13.446;2023-02-28T22:46:42;-0.20;99.90
10143;DHT22;5112;54.088;13.446;2023-02-28T22:56:44;-0.30;99.90
10143;DHT22;5112;54.088;13.446;2023-02-28T23:06:47;-0.30;99.90
10143;DHT22;5112;54.088;13.446;2023-02-28T23:16:50;-0.40;99.90
10143;DHT22;5112;54.088;13.446;2023-02-28T23:26:56;-0.50;99.90
10143;DHT22;5112;54.088;13.446;2023-02-28T23:36:59;-0.20;99.90
10143;DHT22;5112;54.088;13.446;2023-02-28T23:47:02;0.20;99.90
10143;DHT22;5112;54.088;13.446;2023-02-28T23:57:04;0.20;99.90
